createdAt,value
2023-02-11T00:01:25.979Z,56.57
2023-02-11T00:03:54.510Z,56.56
2023-02-11T00:06:23.596Z,56.56
2023-02-11T00:08:51.718Z,56.52
2023-02-11T00:11:20.929Z,56.73
2023-02-11T00:13:48.991Z,56.80
2023-02-11T00:16:20.233Z,56.88
2023-02-11T00:18:49.066Z,56.89
2023-02-11T00:21:19.291Z,56.83
2023-02-11T00:23:47.988Z,56.94
2023-02-11T00:26:18.511Z,56.98
2023-02-11T00:28:48.224Z,56.97
2023-02-11T00:31:17.066Z,57.09
2023-02-11T00:33:45.330Z,56.97
2023-02-11T00:36:15.858Z,57.13
2023-02-11T00:38:48.248Z,57.18
2023-02-11T00:41:16.446Z,57.24
2023-02-11T00:43:47.012Z,57.43
2023-02-11T00:46:15.556Z,57.53
2023-02-11T00:48:44.094Z,57.54
2023-02-11T00:51:12.788Z,57.65
2023-02-11T00:53:41.167Z,57.72
2023-02-11T00:56:09.660Z,57.80
2023-02-11T00:58:38.433Z,57.82
2023-02-11T01:01:07.993Z,57.88
2023-02-11T01:03:36.431Z,57.95
2023-02-11T01:06:06.031Z,58.00
2023-02-11T01:08:34.326Z,58.07
2023-02-11T01:11:06.797Z,58.15
2023-02-11T01:13:37.393Z,58.14
2023-02-11T01:16:08.739Z,58.36
2023-02-11T01:18:37.592Z,58.53
2023-02-11T01:21:06.071Z,58.55
2023-02-11T01:23:34.163Z,58.53
2023-02-11T01:26:02.205Z,58.76
2023-02-11T01:28:30.806Z,58.68
2023-02-11T01:31:01.669Z,58.95
2023-02-11T01:33:30.441Z,59.11
2023-02-11T01:36:04.053Z,59.10
2023-02-11T01:38:32.740Z,59.26
2023-02-11T01:41:07.865Z,59.27
2023-02-11T01:43:37.588Z,59.43
2023-02-11T01:46:36.662Z,59.45
2023-02-11T01:49:10.503Z,59.37
2023-02-11T01:51:44.495Z,59.54
2023-02-11T01:54:33.816Z,59.53
2023-02-11T01:57:21.177Z,59.68
2023-02-11T02:00:04.616Z,59.80
2023-02-11T02:02:55.344Z,59.81
2023-02-11T02:05:37.248Z,59.79
2023-02-11T02:08:21.535Z,59.85
2023-02-11T02:10:54.154Z,59.96
2023-02-11T02:13:23.712Z,59.94
2023-02-11T02:15:54.628Z,60.00
2023-02-11T02:18:25.925Z,59.99
2023-02-11T02:21:31.842Z,60.14
2023-02-11T02:24:19.052Z,60.12
2023-02-11T02:27:12.054Z,60.20
2023-02-11T02:30:02.281Z,60.24
2023-02-11T02:32:33.833Z,60.26
2023-02-11T02:35:23.813Z,60.33
2023-02-11T02:38:26.290Z,60.34
2023-02-11T02:41:10.025Z,60.44
2023-02-11T02:43:41.840Z,60.54
2023-02-11T02:46:39.492Z,60.51
2023-02-11T02:49:14.684Z,60.58
2023-02-11T02:52:00.896Z,60.55
2023-02-11T02:54:50.442Z,60.69
2023-02-11T02:57:43.766Z,60.67
2023-02-11T03:00:30.105Z,60.78
2023-02-11T03:03:09.188Z,60.78
2023-02-11T03:05:51.953Z,60.72
2023-02-11T03:08:53.605Z,60.73
2023-02-11T03:11:23.257Z,60.68
2023-02-11T03:13:51.820Z,60.73
2023-02-11T03:16:23.227Z,60.72
2023-02-11T03:18:58.492Z,60.75
2023-02-11T03:21:26.689Z,60.46
2023-02-11T03:23:56.636Z,60.63
2023-02-11T03:26:49.738Z,60.52
2023-02-11T03:29:21.123Z,60.46
2023-02-11T03:32:12.506Z,60.53
2023-02-11T03:35:04.072Z,60.50
2023-02-11T03:37:35.162Z,60.38
2023-02-11T03:40:06.205Z,60.48
2023-02-11T03:42:40.514Z,60.24
2023-02-11T03:45:10.542Z,60.32
2023-02-11T03:47:43.060Z,60.18
2023-02-11T03:50:11.543Z,60.28
2023-02-11T03:52:40.146Z,60.19
2023-02-11T03:55:11.486Z,60.32
2023-02-11T03:57:40.177Z,60.35
2023-02-11T04:00:09.536Z,60.28
2023-02-11T04:02:41.248Z,60.23
2023-02-11T04:05:11.257Z,60.39
2023-02-11T04:07:39.436Z,60.42
2023-02-11T04:10:08.225Z,60.44
2023-02-11T04:12:36.511Z,60.44
2023-02-11T04:15:05.510Z,60.41
2023-02-11T04:17:33.666Z,60.50
2023-02-11T04:20:01.965Z,60.60
2023-02-11T04:22:30.766Z,60.70
2023-02-11T04:24:58.840Z,60.67
2023-02-11T04:27:27.226Z,60.70
2023-02-11T04:29:55.414Z,60.83
2023-02-11T04:32:24.118Z,60.78
2023-02-11T04:34:52.585Z,60.93
2023-02-11T04:37:21.067Z,60.97
2023-02-11T04:39:49.240Z,61.08
2023-02-11T04:42:17.402Z,61.08
2023-02-11T04:44:45.802Z,61.10
2023-02-11T04:47:15.523Z,61.21
2023-02-11T04:49:43.671Z,61.20
2023-02-11T04:52:12.082Z,61.27
2023-02-11T04:54:40.977Z,61.27
2023-02-11T04:57:10.281Z,61.30
2023-02-11T04:59:38.825Z,61.23
2023-02-11T05:02:07.044Z,61.16
2023-02-11T05:04:35.250Z,61.25
2023-02-11T05:07:03.627Z,61.09
2023-02-11T05:09:35.505Z,61.24
2023-02-11T05:12:04.361Z,61.17
2023-02-11T05:14:33.537Z,61.38
2023-02-11T05:17:02.000Z,61.42
2023-02-11T05:19:32.095Z,61.37
2023-02-11T05:22:03.409Z,61.29
2023-02-11T05:24:32.530Z,61.37
2023-02-11T05:27:01.226Z,61.38
2023-02-11T05:29:29.726Z,61.48
2023-02-11T05:32:00.260Z,61.84
2023-02-11T05:34:28.719Z,61.96
2023-02-11T05:36:56.819Z,62.11
2023-02-11T05:39:25.184Z,62.21
2023-02-11T05:41:53.467Z,62.33
2023-02-11T05:44:21.961Z,62.37
2023-02-11T05:46:50.849Z,62.34
2023-02-11T05:49:19.543Z,62.27
2023-02-11T05:51:47.696Z,62.28
2023-02-11T05:54:16.086Z,62.20
2023-02-11T05:56:44.971Z,62.12
2023-02-11T05:59:16.272Z,62.04
2023-02-11T06:01:44.509Z,61.98
2023-02-11T06:04:13.942Z,61.89
2023-02-11T06:06:42.210Z,61.77
2023-02-11T06:09:12.243Z,61.50
2023-02-11T06:11:40.418Z,61.38
2023-02-11T06:14:13.108Z,61.15
2023-02-11T06:16:42.398Z,61.03
2023-02-11T06:19:11.394Z,60.78
2023-02-11T06:21:44.298Z,60.71
2023-02-11T06:24:12.788Z,60.55
2023-02-11T06:26:41.567Z,60.49
2023-02-11T06:29:10.206Z,60.53
2023-02-11T06:31:40.015Z,60.45
2023-02-11T06:34:09.481Z,60.34
2023-02-11T06:36:41.134Z,60.12
2023-02-11T06:39:09.616Z,60.02
2023-02-11T06:41:37.952Z,60.00
2023-02-11T06:44:06.896Z,60.07
2023-02-11T06:46:35.027Z,60.26
2023-02-11T06:49:03.454Z,60.11
2023-02-11T06:51:31.634Z,60.08
2023-02-11T06:54:00.025Z,60.11
2023-02-11T06:56:28.337Z,59.92
2023-02-11T06:58:56.797Z,59.97
2023-02-11T07:01:25.611Z,59.80
2023-02-11T07:03:53.966Z,59.71
2023-02-11T07:06:25.144Z,59.52
2023-02-11T07:08:55.274Z,59.27
2023-02-11T07:11:29.105Z,59.47
2023-02-11T07:14:01.561Z,59.47
2023-02-11T07:16:30.315Z,59.44
2023-02-11T07:19:03.509Z,59.42
2023-02-11T07:21:31.780Z,59.40
2023-02-11T07:24:00.159Z,59.41
2023-02-11T07:26:29.252Z,59.34
2023-02-11T07:28:58.577Z,59.29
2023-02-11T07:31:28.828Z,59.26
2023-02-11T07:34:00.069Z,59.28
2023-02-11T07:36:30.237Z,59.31
2023-02-11T07:38:58.856Z,59.47
2023-02-11T07:41:27.587Z,59.56
2023-02-11T07:43:56.032Z,59.64
2023-02-11T07:46:26.299Z,59.73
2023-02-11T07:48:55.188Z,59.80
2023-02-11T07:51:25.540Z,59.91
2023-02-11T07:53:54.277Z,60.00
2023-02-11T07:56:22.768Z,60.37
2023-02-11T07:58:51.155Z,60.41
2023-02-11T08:01:26.083Z,60.59
2023-02-11T08:03:55.139Z,60.78
2023-02-11T08:06:24.359Z,60.81
2023-02-11T08:08:52.571Z,60.77
2023-02-11T08:11:22.693Z,60.74
2023-02-11T08:13:51.482Z,60.66
2023-02-11T08:16:24.348Z,60.60
2023-02-11T08:18:53.189Z,60.59
2023-02-11T08:21:21.533Z,60.72
2023-02-11T08:23:49.895Z,60.84
2023-02-11T08:26:26.034Z,60.81
2023-02-11T08:28:55.690Z,60.73
2023-02-11T08:31:28.961Z,60.70
2023-02-11T08:34:00.333Z,60.74
2023-02-11T08:36:30.667Z,60.86
2023-02-11T08:39:18.077Z,60.87
2023-02-11T08:41:52.367Z,60.74
2023-02-11T08:44:21.280Z,60.69
2023-02-11T08:46:50.393Z,60.71
2023-02-11T08:49:20.631Z,60.71
2023-02-11T08:51:49.003Z,60.64
2023-02-11T08:54:17.487Z,60.63
2023-02-11T08:56:45.714Z,60.51
2023-02-11T08:59:15.568Z,60.74
2023-02-11T09:01:44.547Z,60.78
2023-02-11T09:04:14.795Z,60.74
2023-02-11T09:06:43.550Z,60.73
2023-02-11T09:09:13.766Z,60.51
2023-02-11T09:11:42.720Z,60.46
2023-02-11T09:14:22.475Z,60.25
2023-02-11T09:16:51.846Z,60.18
2023-02-11T09:19:25.576Z,60.30
2023-02-11T09:21:54.525Z,60.26
2023-02-11T09:24:22.881Z,60.36
2023-02-11T09:26:51.245Z,60.40
2023-02-11T09:29:19.520Z,60.61
2023-02-11T09:31:48.808Z,60.84
2023-02-11T09:34:17.628Z,60.99
2023-02-11T09:36:46.012Z,61.08
2023-02-11T09:39:18.063Z,61.02
2023-02-11T09:42:19.110Z,61.27
2023-02-11T09:44:48.409Z,61.26
2023-02-11T09:47:36.661Z,61.48
2023-02-11T09:50:19.686Z,61.54
2023-02-11T09:52:54.838Z,61.75
2023-02-11T09:55:42.755Z,61.87
2023-02-11T09:58:14.398Z,62.04
2023-02-11T10:00:48.609Z,61.99
2023-02-11T10:03:35.371Z,62.00
2023-02-11T10:06:25.655Z,62.25
2023-02-11T10:09:03.979Z,62.44
2023-02-11T10:11:35.476Z,62.39
2023-02-11T10:14:07.518Z,62.36
2023-02-11T10:17:10.027Z,62.44
2023-02-11T10:19:55.761Z,62.41
2023-02-11T10:22:39.910Z,62.35
2023-02-11T10:25:25.175Z,62.43
2023-02-11T10:27:57.227Z,62.58
2023-02-11T10:30:33.434Z,62.58
2023-02-11T10:33:32.619Z,62.61
2023-02-11T10:36:01.163Z,62.74
2023-02-11T10:38:29.696Z,62.68
2023-02-11T10:40:57.973Z,62.70
2023-02-11T10:43:27.968Z,62.80
2023-02-11T10:45:56.542Z,62.72
2023-02-11T10:48:51.716Z,62.72
2023-02-11T10:51:29.415Z,62.76
2023-02-11T10:54:19.521Z,62.83
2023-02-11T10:56:52.942Z,62.83
2023-02-11T10:59:40.552Z,62.71
2023-02-11T11:02:23.445Z,62.66
2023-02-11T11:04:56.139Z,62.61
2023-02-11T11:07:27.448Z,62.59
2023-02-11T11:10:03.133Z,62.56
2023-02-11T11:12:36.484Z,62.87
2023-02-11T11:15:11.379Z,63.21
2023-02-11T11:17:45.200Z,63.32
2023-02-11T11:20:19.501Z,63.28
2023-02-11T11:22:48.900Z,64.28
2023-02-11T11:25:29.767Z,64.86
2023-02-11T11:27:59.266Z,64.86
2023-02-11T11:30:32.091Z,65.26
2023-02-11T11:33:00.283Z,65.16
2023-02-11T11:35:30.067Z,64.94
2023-02-11T11:38:03.499Z,65.05
2023-02-11T11:40:33.274Z,65.01
2023-02-11T11:43:14.248Z,64.83
2023-02-11T11:45:56.880Z,64.61
2023-02-11T11:48:42.839Z,64.39
2023-02-11T11:51:11.663Z,64.39
2023-02-11T11:54:00.778Z,64.53
2023-02-11T11:56:31.103Z,64.86
2023-02-11T11:59:01.055Z,64.89
2023-02-11T12:01:57.559Z,64.70
2023-02-11T12:04:33.070Z,64.32
2023-02-11T12:07:12.139Z,64.09
2023-02-11T12:09:54.406Z,64.07
2023-02-11T12:12:54.945Z,64.30
2023-02-11T12:15:42.941Z,64.89
2023-02-11T12:18:39.705Z,65.16
2023-02-11T12:21:43.285Z,65.26
2023-02-11T12:24:38.326Z,65.12
2023-02-11T12:27:13.272Z,65.19
2023-02-11T12:30:04.861Z,65.04
2023-02-11T12:33:17.966Z,65.04
2023-02-11T12:35:46.311Z,64.95
2023-02-11T12:38:39.877Z,64.82
2023-02-11T12:42:10.017Z,64.81
2023-02-11T12:45:03.520Z,64.61
2023-02-11T12:48:00.865Z,64.35
2023-02-11T12:50:32.971Z,64.00
2023-02-11T12:53:23.109Z,63.81
2023-02-11T12:55:56.434Z,63.49
2023-02-11T12:58:35.609Z,63.35
2023-02-11T13:01:18.135Z,63.20
2023-02-11T13:03:52.155Z,63.00
2023-02-11T13:06:24.230Z,62.91
2023-02-11T13:09:00.036Z,62.97
2023-02-11T13:11:39.311Z,62.79
2023-02-11T13:14:26.330Z,62.31
2023-02-11T13:16:55.407Z,62.56
2023-02-11T13:19:35.013Z,62.29
2023-02-11T13:22:13.880Z,62.27
2023-02-11T13:24:44.645Z,62.37
2023-02-11T13:27:23.770Z,62.45
2023-02-11T13:30:47.110Z,62.32
2023-02-11T13:33:18.440Z,62.18
2023-02-11T13:35:56.425Z,62.23
2023-02-11T13:38:27.738Z,62.32
2023-02-11T13:41:04.484Z,62.29
2023-02-11T13:43:36.055Z,62.20
2023-02-11T13:46:10.387Z,62.29
2023-02-11T13:48:50.075Z,62.39
2023-02-11T13:51:32.784Z,62.43
2023-02-11T13:54:01.270Z,62.26
2023-02-11T13:56:36.592Z,62.05
2023-02-11T13:59:26.688Z,61.97
2023-02-11T14:02:36.362Z,61.86
2023-02-11T14:05:23.242Z,61.60
2023-02-11T14:08:28.458Z,61.47
2023-02-11T14:10:58.855Z,61.06
2023-02-11T14:14:01.649Z,60.79
2023-02-11T14:16:37.845Z,60.38
2023-02-11T14:19:10.020Z,59.87
2023-02-11T14:21:40.890Z,59.58
2023-02-11T14:24:13.261Z,59.36
2023-02-11T14:26:59.602Z,59.12
2023-02-11T14:29:52.330Z,58.94
2023-02-11T14:32:34.407Z,58.93
2023-02-11T14:35:13.245Z,58.90
2023-02-11T14:37:59.843Z,58.97
2023-02-11T14:40:33.537Z,59.11
2023-02-11T14:43:08.290Z,59.21
2023-02-11T14:45:36.974Z,59.40
2023-02-11T14:48:08.592Z,59.58
2023-02-11T14:50:53.308Z,59.51
2023-02-11T14:53:23.007Z,59.07
2023-02-11T14:55:55.930Z,59.06
2023-02-11T14:58:30.136Z,58.97
2023-02-11T15:01:06.674Z,58.98
2023-02-11T15:03:41.993Z,58.89
2023-02-11T15:06:19.142Z,58.76
2023-02-11T15:08:50.343Z,58.74
2023-02-11T15:11:20.773Z,58.49
2023-02-11T15:13:50.520Z,58.30
2023-02-11T15:16:26.317Z,58.15
2023-02-11T15:18:57.077Z,57.97
2023-02-11T15:21:30.479Z,57.75
2023-02-11T15:24:03.712Z,57.73
2023-02-11T15:26:32.363Z,57.42
2023-02-11T15:29:01.099Z,57.26
2023-02-11T15:31:31.742Z,57.04
2023-02-11T15:34:08.461Z,57.07
2023-02-11T15:36:37.968Z,56.93
2023-02-11T15:39:18.649Z,56.69
2023-02-11T15:41:47.083Z,56.59
2023-02-11T15:44:29.589Z,56.53
2023-02-11T15:46:57.809Z,56.51
2023-02-11T15:49:26.400Z,56.13
2023-02-11T15:51:55.393Z,55.99
2023-02-11T15:54:29.496Z,55.71
2023-02-11T15:57:05.055Z,55.60
2023-02-11T15:59:39.296Z,55.50
2023-02-11T16:02:33.035Z,55.39
2023-02-11T16:05:04.942Z,55.34
2023-02-11T16:07:52.114Z,55.21
2023-02-11T16:10:32.318Z,55.16
2023-02-11T16:13:06.471Z,55.08
2023-02-11T16:16:02.486Z,54.87
2023-02-11T16:18:39.814Z,54.70
2023-02-11T16:21:15.893Z,54.75
2023-02-11T16:23:49.330Z,54.68
2023-02-11T16:26:27.596Z,54.68
2023-02-11T16:29:04.723Z,54.64
2023-02-11T16:31:41.240Z,54.48
2023-02-11T16:34:17.193Z,54.45
2023-02-11T16:36:46.663Z,54.55
2023-02-11T16:39:15.141Z,54.71
2023-02-11T16:41:43.741Z,54.80
2023-02-11T16:44:12.126Z,54.88
2023-02-11T16:46:41.158Z,54.97
2023-02-11T16:49:10.379Z,55.00
2023-02-11T16:51:39.736Z,54.95
2023-02-11T16:54:12.060Z,54.94
2023-02-11T16:56:41.023Z,54.78
2023-02-11T16:59:10.090Z,54.93
2023-02-11T17:01:39.422Z,54.79
2023-02-11T17:04:11.922Z,54.68
2023-02-11T17:06:40.117Z,54.65
2023-02-11T17:09:15.861Z,54.65
2023-02-11T17:11:45.102Z,54.39
2023-02-11T17:14:13.598Z,54.35
2023-02-11T17:16:42.546Z,54.27
2023-02-11T17:19:15.899Z,54.12
2023-02-11T17:21:48.326Z,54.09
2023-02-11T17:24:16.639Z,53.85
2023-02-11T17:26:45.006Z,53.78
2023-02-11T17:29:15.558Z,53.93
2023-02-11T17:31:44.020Z,53.93
2023-02-11T17:34:12.330Z,53.93
2023-02-11T17:36:41.731Z,53.86
2023-02-11T17:39:10.698Z,53.79
2023-02-11T17:41:39.343Z,53.83
2023-02-11T17:44:12.231Z,53.79
2023-02-11T17:46:40.991Z,53.70
2023-02-11T17:49:12.101Z,53.77
2023-02-11T17:51:43.675Z,53.75
2023-02-11T17:54:13.920Z,53.86
2023-02-11T17:56:42.368Z,53.96
2023-02-11T17:59:11.407Z,53.95
2023-02-11T18:01:40.298Z,53.98
2023-02-11T18:04:13.857Z,54.02
2023-02-11T18:06:42.599Z,54.17
2023-02-11T18:09:11.492Z,54.21
2023-02-11T18:11:41.127Z,54.20
2023-02-11T18:14:10.522Z,54.32
2023-02-11T18:16:43.144Z,54.40
2023-02-11T18:19:11.990Z,54.43
2023-02-11T18:21:41.746Z,54.40
2023-02-11T18:24:10.221Z,54.45
2023-02-11T18:26:38.742Z,54.49
2023-02-11T18:29:07.461Z,54.55
2023-02-11T18:31:35.802Z,54.65
2023-02-11T18:34:06.075Z,54.60
2023-02-11T18:36:34.226Z,54.68
2023-02-11T18:39:02.458Z,54.75
2023-02-11T18:41:30.778Z,54.81
2023-02-11T18:44:03.171Z,54.82
2023-02-11T18:46:31.894Z,55.01
2023-02-11T18:49:00.365Z,55.14
2023-02-11T18:51:28.841Z,55.31
2023-02-11T18:53:57.318Z,55.44
2023-02-11T18:56:27.918Z,55.46
2023-02-11T18:58:58.210Z,55.60
2023-02-11T19:01:27.599Z,55.75
2023-02-11T19:03:58.167Z,55.88
2023-02-11T19:06:27.862Z,56.16
2023-02-11T19:09:02.584Z,56.48
2023-02-11T19:11:47.482Z,56.68
2023-02-11T19:14:17.827Z,56.91
2023-02-11T19:16:46.511Z,57.00
2023-02-11T19:19:14.763Z,57.19
2023-02-11T19:21:44.248Z,57.30
2023-02-11T19:24:13.094Z,57.46
2023-02-11T19:26:41.423Z,57.73
2023-02-11T19:29:09.475Z,57.97
2023-02-11T19:31:37.727Z,58.40
2023-02-11T19:34:07.558Z,58.83
2023-02-11T19:36:35.672Z,58.96
2023-02-11T19:39:04.670Z,59.24
2023-02-11T19:41:33.794Z,59.55
2023-02-11T19:44:02.257Z,59.76
2023-02-11T19:46:33.065Z,59.95
2023-02-11T19:49:01.384Z,60.52
2023-02-11T19:51:31.093Z,60.78
2023-02-11T19:54:00.456Z,61.07
2023-02-11T19:56:29.347Z,61.40
2023-02-11T19:58:58.115Z,61.53
2023-02-11T20:01:26.358Z,61.71
2023-02-11T20:03:55.246Z,61.89
2023-02-11T20:06:25.687Z,61.99
2023-02-11T20:09:01.037Z,62.35
2023-02-11T20:11:30.474Z,62.54
2023-02-11T20:13:59.438Z,62.76
2023-02-11T20:16:46.978Z,62.95
2023-02-11T20:19:21.744Z,63.02
2023-02-11T20:21:55.633Z,63.23
2023-02-11T20:24:24.788Z,63.43
2023-02-11T20:26:56.193Z,63.56
2023-02-11T20:29:25.582Z,63.87
2023-02-11T20:31:56.034Z,64.21
2023-02-11T20:34:25.309Z,64.37
2023-02-11T20:36:54.215Z,64.47
2023-02-11T20:39:24.209Z,64.70
2023-02-11T20:41:53.484Z,64.74
2023-02-11T20:44:22.542Z,64.86
2023-02-11T20:46:51.604Z,65.29
2023-02-11T20:49:21.598Z,65.55
2023-02-11T20:51:51.377Z,65.83
2023-02-11T20:54:20.238Z,66.12
2023-02-11T20:56:54.061Z,66.37
2023-02-11T20:59:22.649Z,66.64
2023-02-11T21:01:55.647Z,66.91
2023-02-11T21:04:26.075Z,67.10
2023-02-11T21:06:56.377Z,67.22
2023-02-11T21:09:27.273Z,67.39
2023-02-11T21:11:57.042Z,67.47
2023-02-11T21:14:26.960Z,67.48
2023-02-11T21:16:55.124Z,67.53
2023-02-11T21:19:23.626Z,67.67
2023-02-11T21:21:51.923Z,67.76
2023-02-11T21:24:20.084Z,67.91
2023-02-11T21:26:49.084Z,68.16
2023-02-11T21:29:17.462Z,68.38
2023-02-11T21:31:46.359Z,68.57
2023-02-11T21:34:16.222Z,68.96
2023-02-11T21:36:45.388Z,69.07
2023-02-11T21:39:14.063Z,69.17
2023-02-11T21:41:42.590Z,69.38
2023-02-11T21:44:13.082Z,69.48
2023-02-11T21:46:42.680Z,69.71
2023-02-11T21:49:12.006Z,69.88
2023-02-11T21:51:40.999Z,70.06
2023-02-11T21:54:10.841Z,70.18
2023-02-11T21:56:40.844Z,70.26
2023-02-11T21:59:11.740Z,70.32
2023-02-11T22:01:41.083Z,70.31
2023-02-11T22:04:09.743Z,70.47
2023-02-11T22:06:40.421Z,70.51
2023-02-11T22:09:09.108Z,70.51
2023-02-11T22:11:37.740Z,70.63
2023-02-11T22:14:06.079Z,70.80
2023-02-11T22:16:35.818Z,71.01
2023-02-11T22:19:06.214Z,71.29
2023-02-11T22:21:34.725Z,71.58
2023-02-11T22:24:03.013Z,71.70
2023-02-11T22:26:34.633Z,71.87
2023-02-11T22:29:03.351Z,72.00
2023-02-11T22:31:33.966Z,72.11
2023-02-11T22:34:03.060Z,72.30
2023-02-11T22:36:37.413Z,72.51
2023-02-11T22:39:09.820Z,72.66
2023-02-11T22:41:39.189Z,72.88
2023-02-11T22:44:08.366Z,72.93
2023-02-11T22:46:36.748Z,73.16
2023-02-11T22:49:05.231Z,73.26
2023-02-11T22:51:33.823Z,73.62
2023-02-11T22:54:03.369Z,73.73
2023-02-11T22:56:32.373Z,73.95
2023-02-11T22:59:01.831Z,74.18
2023-02-11T23:01:30.195Z,74.37
2023-02-11T23:04:02.895Z,74.42
2023-02-11T23:06:31.488Z,74.58
2023-02-11T23:08:59.969Z,74.66
2023-02-11T23:11:29.328Z,74.77
2023-02-11T23:14:00.201Z,74.89
2023-02-11T23:16:31.489Z,75.02
2023-02-11T23:19:00.766Z,75.13
2023-02-11T23:21:30.804Z,75.22
2023-02-11T23:24:00.547Z,75.30
2023-02-11T23:26:29.094Z,75.29
2023-02-11T23:28:59.305Z,75.35
2023-02-11T23:31:37.951Z,75.37
2023-02-11T23:34:07.073Z,75.56
2023-02-11T23:36:36.648Z,75.53
2023-02-11T23:39:05.143Z,75.62
2023-02-11T23:41:34.951Z,75.60
2023-02-11T23:44:03.646Z,75.68
2023-02-11T23:46:33.092Z,75.77
2023-02-11T23:49:02.698Z,75.74
2023-02-11T23:51:32.272Z,75.77
2023-02-11T23:54:01.785Z,75.68
2023-02-11T23:56:30.777Z,75.71
2023-02-11T23:58:59.467Z,75.69
